Terminal Aerodrome Forecast
Issued by NWS Bismarck, ND

Home | Current Version | Previous Version | Text Only | Print | Product List | Glossary Off
Versions: 1 2 3 4 5 6 7 8 9 10 11 12 13 14 15 16 17 18

000
FTUS43 KBIS 212100 AAA
TAFBIS
TAF AMD
KBIS 212111Z 2121/2218 12011KT P6SM VCTS BKN035 BKN050 OVC140CB
      TEMPO 2122/2124 VRB30G40KT 3SM +TSRAGR BKN035 OVC050CB
     FM220100 36012KT P6SM VCTS OVC050CB
     FM220400 35009KT P6SM BKN050=

USA.gov is the U.S. government's official web portal to all federal, state and local government web resources and services.